Time;durP1;ratioP1;P1;durP2;ratioP2;P2;SDS_P1;SDS_P2;PMS_P1;PMS_P2;Temp;Humidity;BMP_temperature;BMP_pressure;BME280_temperature;BME280_humidity;BME280_pressure;Samples;Min_cycle;Max_cycle;Signal;HPM_P1;HPM_P2
2024/01/01 00:01:40;;;;;;;15.70;7.18;;;;;;;7.43;93.21;99298.91;5214612;28;20143;-75
2024/01/01 00:04:10;;;;;;;19.80;7.50;;;;;;;7.39;93.50;99305.16;5216407;28;20276;-75
2024/01/01 00:06:40;;;;;;;12.52;5.63;;;;;;;7.32;93.78;99304.56;5209080;28;20528;-74
2024/01/01 00:09:11;;;;;;;12.48;4.93;;;;;;;7.38;93.67;99295.66;5213831;28;20111;-72
2024/01/01 00:11:41;;;;;;;13.63;6.32;;;;;;;7.41;93.16;99293.78;5215415;28;20587;-74
2024/01/01 00:14:12;;;;;;;11.40;4.25;;;;;;;7.42;93.46;99292.88;5214921;28;20027;-71
2024/01/01 00:16:42;;;;;;;10.55;4.32;;;;;;;7.42;93.17;99292.88;5211509;28;20275;-74
2024/01/01 00:19:14;;;;;;;13.48;3.78;;;;;;;7.40;93.12;99281.72;5211162;28;20025;-74
2024/01/01 00:21:44;;;;;;;7.82;3.58;;;;;;;7.49;92.66;99283.88;5209925;28;20074;-74
2024/01/01 00:24:16;;;;;;;8.38;2.92;;;;;;;7.49;92.69;99283.88;5206972;28;20363;-74
2024/01/01 00:26:47;;;;;;;12.65;3.58;;;;;;;7.59;92.86;99267.00;5202772;28;20474;-74
2024/01/01 00:29:18;;;;;;;6.38;2.83;;;;;;;7.52;92.74;99273.34;5200583;28;20025;-74
2024/01/01 00:31:48;;;;;;;12.48;3.42;;;;;;;7.62;92.72;99261.66;5208452;28;20060;-74
2024/01/01 00:34:18;;;;;;;10.25;2.97;;;;;;;7.62;93.09;99261.66;5205858;28;20021;-75
2024/01/01 00:36:49;;;;;;;7.57;2.78;;;;;;;7.65;93.18;99264.09;5207349;28;20032;-74
2024/01/01 00:39:19;;;;;;;9.85;2.80;;;;;;;7.67;92.55;99270.06;5205024;28;20033;-73
2024/01/01 00:41:49;;;;;;;7.53;2.60;;;;;;;7.67;92.80;99267.47;5209548;28;20037;-74
2024/01/01 00:44:20;;;;;;;10.93;2.55;;;;;;;7.58;92.96;99270.50;5208998;28;20021;-74
2024/01/01 00:46:50;;;;;;;8.00;2.35;;;;;;;7.55;93.69;99270.59;5209538;28;20060;-74
2024/01/01 00:49:20;;;;;;;6.57;2.50;;;;;;;7.41;93.52;99283.41;5212638;28;20028;-74
2024/01/01 00:51:51;;;;;;;8.88;2.50;;;;;;;7.47;93.50;99284.84;5205394;28;20418;-74
2024/01/01 00:54:23;;;;;;;9.63;2.33;;;;;;;7.40;93.10;99289.50;5208618;28;20079;-74
2024/01/01 00:56:54;;;;;;;6.65;2.38;;;;;;;7.31;93.83;99292.47;5207768;28;20029;-74
2024/01/01 00:59:24;;;;;;;9.98;2.63;;;;;;;7.37;94.56;99286.19;5208182;28;20096;-74
2024/01/01 01:01:54;;;;;;;7.40;2.42;;;;;;;7.37;94.83;99292.22;5210252;28;20116;-74
2024/01/01 01:04:25;;;;;;;8.27;2.60;;;;;;;7.30;95.41;99290.78;5207782;28;20028;-74
2024/01/01 01:06:55;;;;;;;5.93;2.65;;;;;;;7.53;94.22;99295.00;5209582;28;20066;-74
2024/01/01 01:09:25;;;;;;;4.50;2.42;;;;;;;7.58;95.00;99296.50;5212902;28;20115;-75
2024/01/01 01:11:56;;;;;;;8.75;3.13;;;;;;;7.56;95.01;99300.06;5213660;28;20390;-74
2024/01/01 01:14:26;;;;;;;5.80;2.42;;;;;;;7.55;94.54;99301.81;5209038;28;20033;-75
2024/01/01 01:16:56;;;;;;;7.05;2.58;;;;;;;7.54;94.61;99294.09;5212643;28;20668;-74
2024/01/01 01:19:27;;;;;;;6.75;2.65;;;;;;;7.53;94.23;99297.59;5210521;28;20123;-74
2024/01/01 01:21:57;;;;;;;11.10;2.47;;;;;;;7.60;94.25;99299.00;5208952;28;20047;-74
2024/01/01 01:24:27;;;;;;;6.40;2.58;;;;;;;7.66;94.07;99294.38;5204656;28;20025;-74
2024/01/01 01:26:57;;;;;;;11.30;3.67;;;;;;;7.67;93.71;99298.66;5204102;28;20040;-74
2024/01/01 01:29:28;;;;;;;6.63;2.55;;;;;;;7.69;93.87;99309.84;5211701;28;20055;-74
2024/01/01 01:31:58;;;;;;;10.23;3.42;;;;;;;7.72;93.89;99304.50;5216445;28;20091;-74
2024/01/01 01:34:28;;;;;;;9.38;2.75;;;;;;;7.84;93.39;99309.16;5212854;28;20032;-75
2024/01/01 01:36:59;;;;;;;7.00;2.42;;;;;;;7.76;93.12;99306.09;5215575;28;20041;-74
2024/01/01 01:39:29;;;;;;;8.10;2.85;;;;;;;7.81;93.36;99304.09;5212471;28;20087;-75
2024/01/01 01:41:59;;;;;;;8.60;3.35;;;;;;;7.84;93.65;99300.53;5214586;28;20233;-74
2024/01/01 01:44:39;;;;;;;5.45;2.47;;;;;;;7.89;93.36;99302.00;5208546;28;20044;-74
2024/01/01 01:47:11;;;;;;;10.55;2.90;;;;;;;7.97;93.62;99309.44;5214645;28;20029;-74
2024/01/01 01:49:41;;;;;;;6.63;2.60;;;;;;;7.97;93.42;99318.13;5213225;28;20028;-75
2024/01/01 01:52:12;;;;;;;9.13;2.80;;;;;;;8.05;92.99;99312.56;5212399;28;20028;-74
2024/01/01 01:54:46;;;;;;;9.38;2.88;;;;;;;8.04;92.36;99303.91;5212526;28;20060;-74
2024/01/01 01:57:17;;;;;;;6.38;2.65;;;;;;;8.10;92.89;99314.06;5204277;28;20490;-74
2024/01/01 01:59:48;;;;;;;8.48;2.75;;;;;;;8.09;92.45;99308.91;5202318;28;20167;-74
2024/01/01 02:02:22;;;;;;;8.68;2.60;;;;;;;8.16;92.55;99298.16;5208509;28;20119;-74
2024/01/01 02:04:53;;;;;;;6.57;2.40;;;;;;;8.08;92.36;99300.25;5209436;28;20288;-74
2024/01/01 02:07:23;;;;;;;9.52;2.78;;;;;;;8.12;92.33;99295.75;5216540;28;20417;-75
2024/01/01 02:09:53;;;;;;;9.88;2.60;;;;;;;8.12;92.41;99294.00;5217739;28;20028;-74
2024/01/01 02:12:23;;;;;;;6.93;2.63;;;;;;;8.13;91.45;99294.84;5215116;28;20438;-75
2024/01/01 02:14:54;;;;;;;6.82;2.40;;;;;;;8.09;92.26;99298.50;5214112;28;20021;-74
2024/01/01 02:17:24;;;;;;;6.38;2.45;;;;;;;8.10;92.69;99300.19;5217339;28;20021;-75
2024/01/01 02:19:55;;;;;;;7.50;2.63;;;;;;;8.29;91.95;99286.28;5216543;28;20029;-74
2024/01/01 02:22:25;;;;;;;8.80;2.50;;;;;;;8.28;90.91;99295.03;5214400;28;20509;-74
2024/01/01 02:24:55;;;;;;;9.73;2.47;;;;;;;8.18;91.01;99293.75;5214841;28;20038;-74
2024/01/01 02:27:25;;;;;;;7.95;2.10;;;;;;;8.19;90.57;99290.22;5216267;28;20501;-75
2024/01/01 02:29:56;;;;;;;8.57;2.25;;;;;;;8.24;89.91;99287.41;5212331;28;20017;-74
2024/01/01 02:32:26;;;;;;;5.93;2.28;;;;;;;8.06;91.76;99294.28;5217457;28;20056;-75
2024/01/01 02:34:56;;;;;;;6.70;2.15;;;;;;;8.27;91.12;99288.13;5219184;28;20037;-74
2024/01/01 02:37:27;;;;;;;6.93;1.98;;;;;;;8.26;90.26;99296.00;5217019;28;20032;-74
2024/01/01 02:39:57;;;;;;;5.50;2.03;;;;;;;8.20;90.46;99302.31;5216266;28;20030;-76
2024/01/01 02:42:29;;;;;;;7.10;2.50;;;;;;;8.33;90.68;99293.03;5218386;28;20025;-74
2024/01/01 02:44:59;;;;;;;5.35;2.33;;;;;;;8.36;90.48;99305.91;5218637;28;20100;-74
2024/01/01 02:47:29;;;;;;;7.22;2.47;;;;;;;8.37;90.36;99304.97;5216024;28;20124;-74
2024/01/01 02:49:59;;;;;;;6.25;1.77;;;;;;;8.34;90.86;99315.53;5217777;28;20044;-74
2024/01/01 02:52:30;;;;;;;6.90;1.98;;;;;;;8.22;91.18;99316.09;5218814;28;20022;-74
2024/01/01 02:55:00;;;;;;;4.47;2.00;;;;;;;8.21;91.34;99319.63;5211655;28;20035;-74
2024/01/01 02:57:30;;;;;;;11.38;2.80;;;;;;;8.32;90.75;99327.78;5216524;28;20095;-75
2024/01/01 03:00:01;;;;;;;5.05;1.52;;;;;;;8.34;90.91;99323.34;5217091;28;20032;-75
2024/01/01 03:02:31;;;;;;;5.85;2.13;;;;;;;8.49;90.33;99327.84;5218384;28;20030;-75
2024/01/01 03:05:01;;;;;;;4.75;1.85;;;;;;;8.48;90.69;99320.09;5217090;28;20031;-74
2024/01/01 03:07:33;;;;;;;6.75;2.28;;;;;;;8.43;91.15;99324.69;5216327;28;20031;-74
2024/01/01 03:10:04;;;;;;;6.85;1.90;;;;;;;8.43;90.23;99312.53;5216251;28;20048;-74
2024/01/01 03:12:35;;;;;;;7.43;1.90;;;;;;;8.41;90.83;99318.69;5214195;28;20083;-74
2024/01/01 03:15:05;;;;;;;5.10;1.83;;;;;;;8.48;90.20;99317.50;5217541;28;20033;-74
2024/01/01 03:17:36;;;;;;;6.13;2.10;;;;;;;8.42;90.34;99313.41;5215608;28;20021;-74
2024/01/01 03:20:06;;;;;;;8.95;2.40;;;;;;;8.40;90.41;99309.22;5218512;28;20112;-75
2024/01/01 03:22:37;;;;;;;7.13;2.08;;;;;;;8.43;89.32;99309.06;5214247;28;20171;-75
2024/01/01 03:25:07;;;;;;;8.85;2.30;;;;;;;8.41;90.08;99300.47;5216880;28;20051;-74
2024/01/01 03:27:38;;;;;;;7.75;2.50;;;;;;;8.39;89.70;99303.16;5216867;28;20375;-74
2024/01/01 03:30:09;;;;;;;6.22;2.10;;;;;;;8.33;89.54;99308.66;5217777;28;20025;-74
2024/01/01 03:32:40;;;;;;;7.20;2.60;;;;;;;8.32;88.83;99306.97;5216300;28;20024;-74
2024/01/01 03:35:10;;;;;;;7.82;2.03;;;;;;;8.19;89.19;99308.44;5211746;28;20219;-74
2024/01/01 03:37:40;;;;;;;6.05;2.25;;;;;;;8.04;90.19;99301.31;5216129;28;20017;-74
2024/01/01 03:40:12;;;;;;;6.72;2.38;;;;;;;7.95;90.69;99306.94;5216254;28;20040;-75
2024/01/01 03:42:42;;;;;;;7.20;2.30;;;;;;;7.90;91.57;99303.69;5216079;28;20085;-74
2024/01/01 03:45:12;;;;;;;5.05;1.95;;;;;;;7.91;90.91;99292.38;5215940;28;20470;-74
2024/01/01 03:47:43;;;;;;;6.45;2.28;;;;;;;7.88;91.16;99304.69;5216457;28;20090;-74
2024/01/01 03:50:14;;;;;;;8.27;2.17;;;;;;;7.91;90.87;99307.97;5214872;28;20029;-74
2024/01/01 03:52:45;;;;;;;7.78;2.33;;;;;;;7.89;90.29;99307.19;5212320;28;20040;-73
2024/01/01 03:55:16;;;;;;;8.65;2.38;;;;;;;7.86;90.71;99312.53;5213284;28;20025;-74
2024/01/01 03:57:46;;;;;;;6.57;2.20;;;;;;;7.75;92.05;99304.41;5209440;28;20504;-74
2024/01/01 04:00:17;;;;;;;9.95;2.72;;;;;;;7.71;92.05;99305.41;5212065;28;20020;-74
2024/01/01 04:02:48;;;;;;;8.90;2.35;;;;;;;7.67;92.20;99300.44;5213803;28;20037;-74
2024/01/01 04:05:18;;;;;;;7.05;2.22;;;;;;;7.80;91.51;99299.81;5212487;28;20766;-74
2024/01/01 04:07:49;;;;;;;4.88;2.08;;;;;;;7.82;92.19;99299.72;5213140;28;20036;-74
2024/01/01 04:10:20;;;;;;;6.28;2.13;;;;;;;7.94;90.88;99304.41;5211536;28;20028;-74
2024/01/01 04:12:50;;;;;;;9.43;2.13;;;;;;;7.89;91.44;99301.16;5214061;28;20036;-74
2024/01/01 04:15:21;;;;;;;5.25;2.10;;;;;;;7.93;91.08;99298.38;5216092;28;20017;-74
2024/01/01 04:17:51;;;;;;;8.90;2.58;;;;;;;7.96;90.97;99295.63;5213339;28;20032;-74
2024/01/01 04:20:21;;;;;;;7.25;2.35;;;;;;;7.91;91.35;99294.97;5213064;28;20032;-73
2024/01/01 04:22:52;;;;;;;6.70;2.40;;;;;;;8.04;90.98;99290.06;5213945;28;20162;-74
2024/01/01 04:25:23;;;;;;;6.85;2.00;;;;;;;7.97;91.00;99294.69;5215735;28;20303;-74
2024/01/01 04:27:53;;;;;;;6.82;2.20;;;;;;;7.90;91.29;99287.25;5214978;28;20055;-74
2024/01/01 04:30:23;;;;;;;7.32;2.60;;;;;;;8.02;89.92;99292.72;5213743;28;20036;-74
2024/01/01 04:32:53;;;;;;;5.65;2.30;;;;;;;8.10;89.67;99285.44;5216292;28;20037;-74
2024/01/01 04:35:24;;;;;;;6.72;2.35;;;;;;;8.08;89.99;99292.44;5215740;28;20021;-74
2024/01/01 04:37:54;;;;;;;6.05;2.33;;;;;;;8.06;89.51;99294.28;5214417;28;20037;-75
2024/01/01 04:40:25;;;;;;;8.13;2.80;;;;;;;8.03;89.16;99291.81;5216477;28;20394;-75
2024/01/01 04:42:55;;;;;;;8.38;2.47;;;;;;;8.04;88.27;99290.91;5215828;28;20178;-74
2024/01/01 04:45:25;;;;;;;8.35;2.55;;;;;;;8.15;88.35;99283.44;5216224;28;20025;-74
2024/01/01 04:47:56;;;;;;;9.77;2.40;;;;;;;8.04;88.01;99290.91;5212572;28;20040;-75
2024/01/01 04:50:27;;;;;;;8.27;2.25;;;;;;;8.10;88.81;99285.44;5214584;28;20032;-74
2024/01/01 04:52:57;;;;;;;7.47;2.50;;;;;;;8.11;88.59;99287.13;5211152;28;20065;-74
2024/01/01 04:55:27;;;;;;;10.05;2.83;;;;;;;8.16;88.39;99282.53;5216385;28;20029;-74
2024/01/01 04:57:58;;;;;;;6.95;2.42;;;;;;;8.03;89.53;99286.59;5216190;28;20060;-74
2024/01/01 05:00:28;;;;;;;7.45;2.33;;;;;;;7.96;89.75;99284.34;5212971;28;20021;-74
2024/01/01 05:02:58;;;;;;;7.63;2.60;;;;;;;7.82;90.02;99284.13;5216398;28;20537;-74
2024/01/01 05:05:29;;;;;;;5.72;2.17;;;;;;;7.66;91.39;99288.34;5209777;28;20027;-74
2024/01/01 05:07:59;;;;;;;7.55;2.63;;;;;;;7.53;92.23;99300.19;5210847;28;20036;-74
2024/01/01 05:10:29;;;;;;;7.78;2.83;;;;;;;7.47;92.93;99290.06;5217156;28;20037;-74
2024/01/01 05:12:59;;;;;;;8.13;2.80;;;;;;;7.35;93.99;99285.41;5212713;28;20025;-74
2024/01/01 05:15:30;;;;;;;6.55;2.25;;;;;;;7.39;94.49;99279.97;5217924;28;20444;-75
2024/01/01 05:18:00;;;;;;;7.50;2.35;;;;;;;7.42;94.63;99295.47;5210038;28;20108;-75
2024/01/01 05:20:30;;;;;;;7.30;2.42;;;;;;;7.44;94.45;99288.44;5216584;28;20386;-73
2024/01/01 05:23:01;;;;;;;9.85;2.65;;;;;;;7.44;95.17;99285.84;5209022;28;20036;-74
2024/01/01 05:25:31;;;;;;;7.82;2.65;;;;;;;7.37;95.04;99289.59;5209918;28;20124;-75
2024/01/01 05:28:02;;;;;;;6.80;2.55;;;;;;;7.40;95.86;99286.91;5212280;28;20028;-75
2024/01/01 05:30:32;;;;;;;7.75;2.40;;;;;;;7.33;94.75;99285.47;5206056;28;20025;-74
2024/01/01 05:33:02;;;;;;;8.00;2.78;;;;;;;7.32;95.95;99288.97;5205301;28;20028;-74
2024/01/01 05:35:33;;;;;;;6.07;2.40;;;;;;;7.30;96.50;99292.53;5207488;28;20408;-74
2024/01/01 05:38:03;;;;;;;6.50;2.60;;;;;;;7.39;96.55;99290.38;5209448;28;20204;-74
2024/01/01 05:40:34;;;;;;;8.10;2.75;;;;;;;7.42;96.32;99290.28;5213756;28;20071;-74
2024/01/01 05:43:04;;;;;;;8.82;3.15;;;;;;;7.40;96.78;99294.69;5215537;28;20394;-75
2024/01/01 05:45:35;;;;;;;6.50;2.53;;;;;;;7.49;96.80;99296.06;5214849;28;20120;-74
2024/01/01 05:48:05;;;;;;;7.28;2.88;;;;;;;7.59;96.59;99292.13;5216914;28;20098;-74
2024/01/01 05:50:36;;;;;;;9.40;2.83;;;;;;;7.53;95.57;99288.03;5221225;28;20235;-74
2024/01/01 05:53:07;;;;;;;7.13;2.42;;;;;;;7.51;95.79;99295.06;5217157;28;20028;-74
2024/01/01 05:55:38;;;;;;;9.73;3.03;;;;;;;7.54;96.07;99289.72;5217700;28;20226;-75
2024/01/01 05:58:09;;;;;;;7.65;2.55;;;;;;;7.60;95.30;99281.66;5213461;28;20258;-74
2024/01/01 06:00:39;;;;;;;10.95;3.38;;;;;;;7.58;95.49;99301.69;5220563;28;20489;-74
2024/01/01 06:03:10;;;;;;;6.47;2.65;;;;;;;7.66;95.72;99286.59;5216637;28;20033;-74
2024/01/01 06:05:40;;;;;;;8.07;2.88;;;;;;;7.68;95.16;99284.75;5215433;28;20072;-74
2024/01/01 06:08:11;;;;;;;6.63;2.53;;;;;;;7.63;94.76;99288.47;5211244;28;20033;-75
2024/01/01 06:10:42;;;;;;;13.10;3.00;;;;;;;7.69;94.50;99293.41;5217524;28;20033;-74
2024/01/01 06:13:12;;;;;;;6.13;2.40;;;;;;;7.70;93.85;99289.91;5216108;28;20037;-74
2024/01/01 06:15:42;;;;;;;6.93;2.30;;;;;;;7.86;92.43;99291.72;5219070;28;20033;-74
2024/01/01 06:18:13;;;;;;;7.63;2.95;;;;;;;7.90;91.29;99295.88;5218598;28;20126;-75
2024/01/01 06:20:44;;;;;;;6.05;2.25;;;;;;;8.08;89.21;99302.00;5220153;28;20044;-74
2024/01/01 06:23:16;;;;;;;10.55;2.72;;;;;;;8.00;89.93;99301.50;5214308;28;20037;-74
2024/01/01 06:25:46;;;;;;;9.93;2.40;;;;;;;8.07;89.59;99295.94;5214239;28;20029;-72
2024/01/01 06:28:16;;;;;;;8.77;2.60;;;;;;;8.24;88.89;99298.66;5212540;28;20059;-74
2024/01/01 06:30:47;;;;;;;9.05;2.85;;;;;;;8.29;88.28;99295.84;5216951;28;20101;-74
2024/01/01 06:33:17;;;;;;;11.48;2.55;;;;;;;8.27;87.95;99302.88;5213841;28;20044;-74
2024/01/01 06:35:47;;;;;;;6.90;2.80;;;;;;;8.31;87.68;99304.41;5216766;28;20021;-75
2024/01/01 06:38:17;;;;;;;10.10;3.03;;;;;;;8.36;87.79;99298.09;5217502;28;20501;-74
2024/01/01 06:40:48;;;;;;;9.30;3.08;;;;;;;8.39;87.71;99302.31;5210515;28;20083;-74
2024/01/01 06:43:18;;;;;;;8.27;2.92;;;;;;;8.45;86.79;99302.88;5218993;28;20037;-74
2024/01/01 06:45:48;;;;;;;14.98;3.10;;;;;;;8.48;87.27;99304.47;5216185;28;20044;-74
2024/01/01 06:48:19;;;;;;;10.98;3.10;;;;;;;8.46;86.93;99299.34;5217021;28;20033;-74
2024/01/01 06:50:49;;;;;;;12.30;2.97;;;;;;;8.45;87.42;99307.22;5217162;28;20512;-74
2024/01/01 06:53:19;;;;;;;10.50;3.28;;;;;;;8.39;87.77;99305.75;5214955;28;20025;-74
2024/01/01 06:55:50;;;;;;;10.13;3.58;;;;;;;8.49;87.27;99313.97;5219210;28;20029;-74
2024/01/01 06:58:20;;;;;;;9.65;3.20;;;;;;;8.57;87.14;99320.50;5214561;28;20071;-75
2024/01/01 07:00:51;;;;;;;10.55;3.53;;;;;;;8.54;86.97;99325.84;5216764;28;20032;-75
2024/01/01 07:03:21;;;;;;;13.13;3.60;;;;;;;8.57;86.95;99333.50;5212309;28;20101;-74
2024/01/01 07:05:51;;;;;;;11.57;3.28;;;;;;;8.54;87.80;99333.66;5217343;28;20040;-73
2024/01/01 07:08:23;;;;;;;8.23;3.33;;;;;;;8.48;87.86;99339.19;5216767;28;20025;-74
2024/01/01 07:10:53;;;;;;;11.70;3.35;;;;;;;8.47;88.24;99342.69;5218302;28;20036;-74
2024/01/01 07:13:24;;;;;;;14.00;4.20;;;;;;;8.60;88.06;99341.22;5209432;28;20021;-74
2024/01/01 07:15:54;;;;;;;12.02;4.20;;;;;;;8.60;88.11;99350.75;5210259;28;20037;-74
2024/01/01 07:18:25;;;;;;;10.52;3.70;;;;;;;8.60;88.35;99343.81;5212197;28;20016;-74
2024/01/01 07:20:55;;;;;;;11.40;3.85;;;;;;;8.63;88.57;99348.00;5215551;28;20315;-74
2024/01/01 07:23:25;;;;;;;12.88;3.50;;;;;;;8.52;88.87;99345.91;5215668;28;20029;-74
2024/01/01 07:25:56;;;;;;;11.70;3.92;;;;;;;8.48;89.46;99356.53;5216038;28;20171;-75
2024/01/01 07:28:27;;;;;;;12.70;3.80;;;;;;;8.47;89.43;99358.31;5218985;28;20039;-74
2024/01/01 07:30:58;;;;;;;10.80;3.72;;;;;;;8.57;89.18;99364.75;5217862;28;20034;-75
2024/01/01 07:33:28;;;;;;;13.93;3.90;;;;;;;8.49;90.00;99359.09;5217245;28;20063;-74
2024/01/01 07:35:58;;;;;;;9.60;3.88;;;;;;;8.42;90.10;99365.47;5209694;28;20551;-74
2024/01/01 07:38:29;;;;;;;8.43;3.08;;;;;;;8.45;90.86;99370.56;5216050;28;20033;-74
2024/01/01 07:41:00;;;;;;;11.02;4.25;;;;;;;8.61;90.05;99361.13;5213129;28;20132;-74
2024/01/01 07:43:31;;;;;;;11.68;3.50;;;;;;;8.57;89.95;99372.56;5214260;28;20055;-74
2024/01/01 07:46:01;;;;;;;9.10;3.42;;;;;;;8.53;89.85;99367.59;5218922;28;20065;-75
2024/01/01 07:48:31;;;;;;;10.85;3.60;;;;;;;8.37;91.01;99366.63;5216695;28;20110;-74
2024/01/01 07:51:02;;;;;;;13.13;3.70;;;;;;;8.40;91.76;99367.31;5216304;28;20024;-75
2024/01/01 07:53:32;;;;;;;10.02;3.85;;;;;;;8.25;91.74;99367.19;5215641;28;20024;-74
2024/01/01 07:56:04;;;;;;;11.90;3.72;;;;;;;8.25;92.44;99370.59;5216688;28;20031;-75
2024/01/01 07:58:35;;;;;;;12.50;3.38;;;;;;;8.30;92.49;99383.41;5216461;28;20514;-74
2024/01/01 08:01:06;;;;;;;11.77;3.80;;;;;;;8.22;92.06;99375.94;5217613;28;20090;-74
2024/01/01 08:03:36;;;;;;;11.30;3.30;;;;;;;8.29;92.68;99382.59;5212748;28;20029;-74
2024/01/01 08:06:07;;;;;;;9.27;2.92;;;;;;;8.18;92.80;99379.63;5212776;28;20060;-75
2024/01/01 08:08:38;;;;;;;11.95;3.58;;;;;;;8.27;92.70;99381.81;5213691;28;20079;-75
2024/01/01 08:11:08;;;;;;;9.55;3.53;;;;;;;8.25;93.17;99381.00;5215429;28;20025;-74
2024/01/01 08:13:38;;;;;;;11.48;3.17;;;;;;;8.25;93.24;99378.41;5210661;28;20033;-74
2024/01/01 08:16:08;;;;;;;8.90;2.95;;;;;;;8.36;93.16;99376.19;5215809;28;20111;-75
2024/01/01 08:18:39;;;;;;;8.32;2.78;;;;;;;8.30;93.12;99381.66;5215203;28;20048;-74
2024/01/01 08:21:09;;;;;;;8.32;3.08;;;;;;;8.35;93.93;99379.69;5214252;28;20060;-75
2024/01/01 08:23:39;;;;;;;10.38;3.22;;;;;;;8.33;94.10;99381.53;5215275;28;20017;-74
2024/01/01 08:26:10;;;;;;;13.25;3.20;;;;;;;8.34;93.77;99387.56;5215553;28;20021;-74
2024/01/01 08:28:40;;;;;;;9.95;3.20;;;;;;;8.34;94.56;99388.41;5217146;28;20024;-74
2024/01/01 08:31:10;;;;;;;8.48;3.20;;;;;;;8.35;94.58;99387.50;5215314;28;20524;-74
2024/01/01 08:33:40;;;;;;;10.18;3.15;;;;;;;8.34;94.66;99385.81;5212629;28;20036;-74
2024/01/01 08:36:11;;;;;;;10.10;3.50;;;;;;;8.30;94.95;99392.09;5216163;28;20110;-74
2024/01/01 08:38:41;;;;;;;10.40;3.30;;;;;;;8.35;95.30;99390.09;5214753;28;20037;-74
2024/01/01 08:41:11;;;;;;;10.20;3.15;;;;;;;8.43;94.31;99394.97;5211425;28;20032;-74
2024/01/01 08:43:42;;;;;;;12.25;3.03;;;;;;;8.39;94.74;99393.41;5210597;28;20044;-74
2024/01/01 08:46:13;;;;;;;10.25;3.05;;;;;;;8.41;95.58;99391.59;5212511;28;20140;-75
2024/01/01 08:48:44;;;;;;;9.13;3.22;;;;;;;8.36;95.12;99394.41;5215723;28;20409;-74
2024/01/01 08:51:14;;;;;;;10.48;2.75;;;;;;;8.36;95.26;99399.59;5213309;28;20024;-74
2024/01/01 08:53:45;;;;;;;7.25;2.45;;;;;;;8.52;94.84;99397.16;5214428;28;20028;-74
2024/01/01 08:56:15;;;;;;;9.95;3.28;;;;;;;8.37;94.19;99398.69;5211917;28;20021;-75
2024/01/01 08:58:45;;;;;;;10.35;2.78;;;;;;;8.26;94.99;99398.34;5217023;28;20475;-74
2024/01/01 09:01:16;;;;;;;12.32;2.95;;;;;;;8.36;94.78;99404.81;5215821;28;20060;-74
2024/01/01 09:03:46;;;;;;;6.45;2.92;;;;;;;8.42;94.33;99399.31;5211290;28;20506;-74
2024/01/01 09:06:17;;;;;;;9.38;2.63;;;;;;;8.33;94.82;99407.56;5213331;28;20027;-74
2024/01/01 09:08:47;;;;;;;8.90;2.60;;;;;;;8.36;94.18;99402.19;5207879;28;20469;-74
2024/01/01 09:11:17;;;;;;;10.52;2.67;;;;;;;8.31;94.08;99404.19;5203079;28;20406;-74
2024/01/01 09:13:48;;;;;;;11.40;2.88;;;;;;;8.49;94.27;99410.28;5202765;28;20095;-74
2024/01/01 09:16:18;;;;;;;13.80;2.88;;;;;;;8.42;93.63;99408.91;5216327;28;20028;-74
2024/01/01 09:18:48;;;;;;;16.05;3.15;;;;;;;8.49;93.68;99418.97;5216205;28;20440;-74
2024/01/01 09:21:19;;;;;;;8.63;2.80;;;;;;;8.57;93.43;99409.03;5214081;28;20032;-73
2024/01/01 09:23:50;;;;;;;11.57;2.85;;;;;;;8.59;93.03;99411.56;5217547;28;20025;-74
2024/01/01 09:26:20;;;;;;;12.70;3.17;;;;;;;8.64;92.64;99418.25;5217174;28;20037;-74
2024/01/01 09:28:51;;;;;;;10.43;2.78;;;;;;;8.69;93.25;99420.66;5213567;28;20032;-74
2024/01/01 09:31:21;;;;;;;9.15;2.70;;;;;;;8.77;91.58;99410.72;5212042;28;20031;-74
2024/01/01 09:33:51;;;;;;;6.20;2.15;;;;;;;8.81;92.07;99420.06;5209800;28;20037;-74
2024/01/01 09:36:22;;;;;;;11.93;2.78;;;;;;;8.87;90.97;99420.63;5206631;28;20061;-75
2024/01/01 09:38:52;;;;;;;14.35;2.47;;;;;;;8.94;90.40;99427.25;5210571;28;20030;-75
2024/01/01 09:41:26;;;;;;;13.10;2.55;;;;;;;9.09;90.64;99416.06;5208713;28;20301;-74
2024/01/01 09:43:56;;;;;;;8.95;2.20;;;;;;;9.20;89.31;99426.84;5213704;28;20029;-74
2024/01/01 09:46:32;;;;;;;6.20;1.80;;;;;;;9.20;89.28;99425.09;5212600;28;20118;-74
2024/01/01 09:49:03;;;;;;;10.75;2.40;;;;;;;9.19;88.48;99417.34;5206959;28;20049;-72
2024/01/01 09:51:39;;;;;;;11.35;1.92;;;;;;;9.26;88.01;99416.09;5210266;28;20064;-74
2024/01/01 09:54:10;;;;;;;8.68;2.00;;;;;;;9.18;88.12;99424.28;5209305;28;20040;-73
2024/01/01 09:56:40;;;;;;;5.68;2.20;;;;;;;9.29;87.94;99415.97;5210095;28;20041;-74
2024/01/01 09:59:10;;;;;;;8.48;1.95;;;;;;;9.30;87.80;99415.88;5209249;28;20028;-76
2024/01/01 10:01:44;;;;;;;8.50;1.83;;;;;;;9.50;86.66;99417.53;5203345;28;20405;-74
2024/01/01 10:04:21;;;;;;;7.50;1.70;;;;;;;9.59;86.44;99420.53;5205955;28;20449;-74
2024/01/01 10:06:55;;;;;;;7.75;1.58;;;;;;;9.63;85.70;99416.00;5208843;28;20079;-75
2024/01/01 10:09:25;;;;;;;7.57;1.52;;;;;;;9.52;85.26;99420.91;5209409;28;20026;-74
2024/01/01 10:12:09;;;;;;;8.70;1.38;;;;;;;9.62;85.31;99417.75;5214393;28;20017;-74
2024/01/01 10:14:46;;;;;;;6.60;1.60;;;;;;;9.68;84.82;99424.44;5213628;28;20032;-74
2024/01/01 10:17:18;;;;;;;7.00;1.50;;;;;;;9.78;84.87;99421.28;5204057;28;20114;-73
2024/01/01 10:19:55;;;;;;;7.63;1.52;;;;;;;9.74;84.57;99416.28;5210257;28;20107;-75
2024/01/01 10:22:30;;;;;;;8.55;2.00;;;;;;;9.76;84.68;99422.25;5203328;28;20075;-75
2024/01/01 10:25:14;;;;;;;8.10;1.27;;;;;;;9.86;84.23;99420.88;5205372;28;20025;-75
2024/01/01 10:27:46;;;;;;;6.68;1.58;;;;;;;9.78;83.96;99420.41;5216868;28;20703;-75
2024/01/01 10:30:16;;;;;;;8.05;1.30;;;;;;;9.69;84.63;99423.50;5219222;28;20434;-76
2024/01/01 10:32:47;;;;;;;7.93;1.70;;;;;;;9.68;84.96;99416.59;5214671;28;20021;-74
2024/01/01 10:35:17;;;;;;;6.97;1.45;;;;;;;9.91;83.87;99424.09;5213615;28;20053;-74
2024/01/01 10:37:48;;;;;;;6.22;1.20;;;;;;;9.78;83.29;99429.09;5216709;28;20112;-74
2024/01/01 10:40:18;;;;;;;9.00;1.67;;;;;;;9.78;83.30;99421.28;5214544;28;20052;-74
2024/01/01 10:42:50;;;;;;;10.52;1.70;;;;;;;9.75;82.89;99428.41;5213967;28;20441;-73
2024/01/01 10:45:20;;;;;;;10.27;1.48;;;;;;;9.79;82.98;99422.97;5212692;28;20044;-73
2024/01/01 10:47:52;;;;;;;8.38;1.15;;;;;;;9.77;83.61;99421.34;5212893;28;20082;-74
2024/01/01 10:50:30;;;;;;;13.35;1.80;;;;;;;9.83;82.92;99428.88;5214814;28;20029;-74
2024/01/01 10:53:22;;;;;;;6.63;1.70;;;;;;;9.85;83.68;99435.69;5209052;28;20528;-74
2024/01/01 10:56:36;;;;;;;10.98;1.50;;;;;;;9.67;83.67;99423.56;5212451;28;20048;-74
2024/01/01 10:59:09;;;;;;;9.65;1.52;;;;;;;9.82;83.18;99430.63;5210684;28;20081;-75
2024/01/01 11:01:41;;;;;;;9.73;1.27;;;;;;;9.74;83.05;99431.94;5207314;28;20490;-74
2024/01/01 11:04:15;;;;;;;7.05;1.40;;;;;;;9.80;83.59;99429.88;5210490;28;20028;-72
2024/01/01 11:06:45;;;;;;;6.78;1.27;;;;;;;9.81;84.00;99441.16;5209894;28;20029;-73
2024/01/01 11:09:18;;;;;;;10.25;1.80;;;;;;;9.82;84.16;99441.06;5209607;28;20033;-75
2024/01/01 11:11:53;;;;;;;8.63;1.70;;;;;;;9.91;84.09;99429.31;5211298;28;20025;-74
2024/01/01 11:14:31;;;;;;;13.68;1.58;;;;;;;9.98;83.50;99441.16;5215998;28;20032;-74
2024/01/01 11:17:06;;;;;;;4.60;1.20;;;;;;;9.96;83.75;99432.56;5212485;28;20017;-75
2024/01/01 11:19:46;;;;;;;7.28;1.60;;;;;;;10.05;84.12;99439.94;5215618;28;20127;-74
2024/01/01 11:22:19;;;;;;;9.70;1.52;;;;;;;9.95;84.15;99441.28;5215570;28;20490;-72
2024/01/01 11:24:50;;;;;;;7.25;1.50;;;;;;;9.85;83.96;99438.28;5210130;28;20364;-74
2024/01/01 11:27:24;;;;;;;11.27;1.35;;;;;;;9.85;83.77;99445.28;5206343;28;20061;-73
2024/01/01 11:30:05;;;;;;;6.55;1.42;;;;;;;9.82;84.04;99450.69;5215062;28;20060;-74
2024/01/01 11:32:36;;;;;;;9.32;1.60;;;;;;;9.76;84.94;99454.44;5213613;28;20121;-75
2024/01/01 11:35:15;;;;;;;8.05;1.70;;;;;;;9.70;86.30;99440.84;5216822;28;20414;-75
2024/01/01 11:37:45;;;;;;;14.00;2.30;;;;;;;9.67;87.23;99443.63;5213564;28;20048;-74
2024/01/01 11:40:16;;;;;;;12.55;1.60;;;;;;;9.63;87.07;99460.34;5217497;28;20025;-72
2024/01/01 11:42:48;;;;;;;8.20;1.83;;;;;;;9.57;87.32;99452.81;5208918;28;20115;-73
2024/01/01 11:45:20;;;;;;;7.53;1.35;;;;;;;9.54;87.31;99450.34;5205033;28;20507;-72
2024/01/01 11:47:50;;;;;;;7.40;1.65;;;;;;;9.62;86.94;99453.44;5210363;28;20053;-74
2024/01/01 11:50:30;;;;;;;7.50;1.80;;;;;;;9.52;86.87;99453.03;5210030;28;20578;-72
2024/01/01 11:53:00;;;;;;;8.52;1.40;;;;;;;9.52;88.51;99457.41;5207402;28;20674;-74
2024/01/01 11:55:31;;;;;;;6.95;1.50;;;;;;;9.48;88.00;99454.09;5211424;28;20032;-74
2024/01/01 11:58:01;;;;;;;9.95;1.55;;;;;;;9.61;87.46;99456.94;5216093;28;20086;-74